Maynardville, TN (37807)

1:10 PM EDT on August 24, 2016 (GMT -0400)
Paulette | | Change Station

Elev 1036 ft 36.17 °N, 83.91 °W | Updated 16 seconds ago

Mostly Cloudy
Mostly Cloudy
86.7 °F
Feels Like 92 °F
N
3.4
Wind Variable Wind from WSW
Gusts 6.9 mph

Today
High -- | Low -- °F
--% Chance of Precip.
Yesterday
High -- | Low -- °F
Precip. -- in
Pressure 30.23 in
Visibility 10.0 miles
Clouds Scattered Clouds 4200 ft
Scattered Clouds 7500 ft
Mostly Cloudy 9000 ft
Heat Index 92 °F
Dew Point 71 °F
Humidity 59%
Rainfall 0.00 in
Snow Depth Not available.
7:01 AM 8:13 PM
Waning Gibbous, 55% visible
METAR KOQT 241653Z AUTO VRB03KT 10SM SCT042 SCT075 BKN090 29/20 A3027 RMK AO2 SLP235 T02890200
Pressure 30.23 in
Visibility 10.0 miles
Clouds Scattered Clouds 4200 ft
Scattered Clouds 7500 ft
Mostly Cloudy 9000 ft
Heat Index 92 °F
Dew Point 71 °F
Humidity 59%
Rainfall 0.00 in
Snow Depth Not available.
7:01 AM 8:13 PM
Waning Gibbous, 55% visible
METAR KOQT 241653Z AUTO VRB03KT 10SM SCT042 SCT075 BKN090 29/20 A3027 RMK AO2 SLP235 T02890200

10-Day Weather Forecast

Almanac

Astronomy

Aug. 24, 2016 Rise Set
Actual Time
Civil Twilight
Nautical Twilight
Astronomical Twilight
Moon
Length of Visible Light
Length of Day
Tomorrow will be .
, % of the Moon is Illuminated

Today's Extremes

State Highs State Lows

Community

WunderPhotos

Upload Photos

1,934,650 photos uploaded!

WunderBlog® & News

Nearby

Air Quality

  Air Quality AQ Index Pollutant
Not available.

Snow Depth

Station Depth Elevation

Earthquake Activity

City Distance Mag. Time & Date
Minimum magnitude displayed is 2.5.

Coastal Water Temperatures

Place Temperature

Stations

Nearby Weather Stations

Station Location Temp. Windchill Dew Point Humidity Wind Precip. Elev Updated Type
                   

Watches & Warnings

There are currently no watches in effect.